Time;durP1;ratioP1;P1;durP2;ratioP2;P2;SDS_P1;SDS_P2;PMS_P1;PMS_P2;Temp;Humidity;BMP_temperature;BMP_pressure;BME280_temperature;BME280_humidity;BME280_pressure;Samples;Min_cycle;Max_cycle;Signal;HPM_P1;HPM_P2
2022/02/19 00:01:36;;;;;;;4.33;1.10;;;10.20;1.00;;;;;;5093285;28;20201;-72
2022/02/19 00:04:03;;;;;;;3.37;1.17;;;10.20;1.00;;;;;;5093396;28;20202;-72
2022/02/19 00:06:33;;;;;;;8.13;1.60;;;10.20;1.00;;;;;;5093000;28;20205;-72
2022/02/19 00:09:00;;;;;;;2.47;1.27;;;10.20;1.00;;;;;;5093271;28;20201;-72
2022/02/19 00:11:28;;;;;;;3.67;1.23;;;10.10;1.00;;;;;;5093728;28;20259;-72
2022/02/19 00:13:55;;;;;;;1.73;0.90;;;10.20;1.00;;;;;;5093481;28;20206;-73
2022/02/19 00:16:22;;;;;;;2.73;2.10;;;10.20;1.00;;;;;;5093146;28;20237;-73
2022/02/19 00:18:50;;;;;;;3.93;0.90;;;10.10;1.00;;;;;;5092700;28;20361;-72
2022/02/19 00:21:17;;;;;;;6.40;1.23;;;10.20;1.00;;;;;;5093001;28;20221;-72
2022/02/19 00:23:45;;;;;;;4.10;1.33;;;10.10;1.00;;;;;;5092512;28;20664;-72
2022/02/19 00:26:11;;;;;;;4.03;1.30;;;10.00;1.00;;;;;;5092963;28;20251;-72
2022/02/19 00:28:38;;;;;;;4.90;1.27;;;10.00;1.00;;;;;;5091954;28;20201;-72
2022/02/19 00:31:05;;;;;;;6.10;1.33;;;10.10;1.00;;;;;;5092929;28;20201;-72
2022/02/19 00:33:33;;;;;;;3.20;1.40;;;10.10;1.00;;;;;;5092504;28;20259;-72
2022/02/19 00:36:01;;;;;;;3.60;2.10;;;10.10;1.00;;;;;;5092955;28;20229;-72
2022/02/19 00:38:29;;;;;;;3.97;1.10;;;10.00;1.00;;;;;;5092708;28;20201;-72
2022/02/19 00:40:56;;;;;;;7.53;2.47;;;10.00;1.00;;;;;;5092966;28;20669;-71
2022/02/19 00:43:23;;;;;;;3.23;1.23;;;10.00;1.00;;;;;;5092590;28;20661;-72
2022/02/19 00:45:50;;;;;;;4.50;1.57;;;10.00;1.00;;;;;;5092163;28;20676;-72
2022/02/19 00:48:17;;;;;;;5.23;2.83;;;10.00;1.00;;;;;;5092554;28;20209;-72
2022/02/19 00:50:46;;;;;;;5.23;2.17;;;10.00;1.00;;;;;;5092096;28;20210;-72
2022/02/19 00:53:14;;;;;;;5.00;3.03;;;10.00;1.00;;;;;;5091936;28;20213;-72
2022/02/19 00:55:41;;;;;;;6.00;1.40;;;10.00;1.00;;;;;;5091982;28;20696;-72
2022/02/19 00:58:09;;;;;;;4.30;1.10;;;10.00;1.00;;;;;;5092319;28;20201;-73
2022/02/19 01:00:36;;;;;;;6.20;1.77;;;10.00;1.00;;;;;;5091968;28;20332;-72
2022/02/19 01:03:04;;;;;;;5.27;1.43;;;10.00;1.00;;;;;;5092377;28;20214;-72
2022/02/19 01:05:31;;;;;;;4.97;1.70;;;10.00;1.00;;;;;;5091786;28;20730;-72
2022/02/19 01:07:58;;;;;;;4.33;1.50;;;10.00;1.00;;;;;;5092235;28;20255;-74
2022/02/19 01:10:26;;;;;;;2.60;1.27;;;10.00;1.00;;;;;;5092408;28;20205;-75
2022/02/19 01:12:53;;;;;;;7.67;1.70;;;9.90;1.00;;;;;;5091836;28;20231;-74
2022/02/19 01:15:20;;;;;;;9.73;2.47;;;9.90;1.00;;;;;;5091773;28;20594;-74
2022/02/19 01:17:47;;;;;;;4.93;1.60;;;9.80;1.00;;;;;;5091876;28;20267;-74
2022/02/19 01:20:14;;;;;;;5.10;3.97;;;9.80;1.00;;;;;;5091917;28;20256;-74
2022/02/19 01:22:42;;;;;;;6.73;1.70;;;9.80;1.00;;;;;;5091224;28;20618;-74
2022/02/19 01:25:10;;;;;;;3.10;1.20;;;9.70;1.00;;;;;;5091840;28;20197;-74
2022/02/19 01:27:38;;;;;;;12.80;3.13;;;9.70;1.00;;;;;;5091376;28;20215;-74
2022/02/19 01:30:07;;;;;;;4.93;1.40;;;9.70;1.00;;;;;;5091736;28;20201;-74
2022/02/19 01:32:35;;;;;;;8.87;2.87;;;9.60;1.00;;;;;;5086185;28;20214;-75
2022/02/19 01:35:02;;;;;;;5.40;1.47;;;9.60;1.00;;;;;;5071450;28;20615;-74
2022/02/19 01:37:29;;;;;;;21.53;3.03;;;9.60;1.00;;;;;;5070613;28;20292;-74
2022/02/19 01:39:56;;;;;;;6.53;1.67;;;9.50;1.00;;;;;;5071595;28;20202;-74
2022/02/19 01:42:23;;;;;;;6.03;1.87;;;9.50;1.00;;;;;;5071238;28;20206;-74
2022/02/19 01:44:53;;;;;;;6.23;1.93;;;9.50;1.00;;;;;;5071169;28;20271;-75
2022/02/19 01:47:20;;;;;;;6.07;1.77;;;9.50;1.00;;;;;;5071380;28;20260;-74
2022/02/19 01:49:48;;;;;;;11.13;2.60;;;9.50;1.00;;;;;;5070790;28;20283;-74
2022/02/19 01:52:17;;;;;;;10.63;2.20;;;9.40;1.00;;;;;;5071102;28;20203;-74
2022/02/19 01:54:45;;;;;;;8.20;2.20;;;9.50;1.00;;;;;;5070741;28;20206;-74
2022/02/19 01:57:12;;;;;;;5.73;1.90;;;9.50;1.00;;;;;;5070960;28;20302;-75
2022/02/19 01:59:41;;;;;;;7.07;1.60;;;9.40;1.00;;;;;;5070880;28;20198;-74
2022/02/19 02:02:10;;;;;;;7.90;1.60;;;9.50;1.00;;;;;;5070905;28;20673;-74
2022/02/19 02:04:37;;;;;;;8.53;1.97;;;9.50;1.00;;;;;;5070441;28;20301;-74
2022/02/19 02:07:05;;;;;;;6.23;1.63;;;9.40;1.00;;;;;;5070983;28;20202;-75
2022/02/19 02:09:33;;;;;;;6.40;1.77;;;9.40;1.00;;;;;;5070517;28;20202;-74
2022/02/19 02:12:00;;;;;;;10.37;2.07;;;9.40;1.00;;;;;;5071104;28;20206;-74
2022/02/19 02:14:27;;;;;;;9.67;2.10;;;9.40;1.00;;;;;;5071250;28;20210;-75
2022/02/19 02:16:54;;;;;;;7.10;1.73;;;9.40;1.00;;;;;;5071270;28;20240;-74
2022/02/19 02:19:22;;;;;;;7.37;2.33;;;9.40;1.00;;;;;;5070772;28;20252;-74
2022/02/19 02:21:51;;;;;;;8.90;2.47;;;9.40;1.00;;;;;;5070146;28;20209;-74
2022/02/19 02:24:18;;;;;;;9.77;2.23;;;9.40;1.00;;;;;;5070715;28;20617;-75
2022/02/19 02:26:46;;;;;;;3.07;1.57;;;9.40;1.00;;;;;;5070545;28;20255;-72
2022/02/19 02:29:13;;;;;;;4.40;1.27;;;9.40;1.00;;;;;;5070796;28;20569;-71
2022/02/19 02:31:40;;;;;;;4.17;1.63;;;9.30;1.00;;;;;;5070556;28;20210;-72
2022/02/19 02:34:07;;;;;;;4.07;1.20;;;9.30;1.00;;;;;;5070553;28;20210;-72
2022/02/19 02:36:34;;;;;;;7.63;2.13;;;9.20;1.00;;;;;;5069998;28;20233;-72
2022/02/19 02:39:03;;;;;;;5.03;1.37;;;9.30;1.00;;;;;;5070706;28;20206;-72
2022/02/19 02:41:30;;;;;;;6.87;1.37;;;9.30;1.00;;;;;;5070443;28;20217;-72
2022/02/19 02:43:57;;;;;;;3.10;1.70;;;9.40;1.00;;;;;;5071089;28;20259;-72
2022/02/19 02:46:24;;;;;;;8.30;2.93;;;9.40;1.00;;;;;;5070963;28;20263;-72
2022/02/19 02:48:51;;;;;;;7.77;1.90;;;9.30;1.00;;;;;;5069938;28;20203;-72
2022/02/19 02:51:19;;;;;;;5.93;1.73;;;9.30;1.00;;;;;;5070528;28;20588;-72
2022/02/19 02:53:46;;;;;;;10.50;4.67;;;9.30;1.00;;;;;;5074131;28;20670;-72
2022/02/19 02:56:15;;;;;;;9.60;2.00;;;9.30;1.00;;;;;;5074341;28;20279;-72
2022/02/19 02:58:42;;;;;;;6.60;1.70;;;9.30;1.00;;;;;;5073948;28;20202;-72
2022/02/19 03:01:09;;;;;;;9.77;3.23;;;9.40;1.00;;;;;;5074451;28;20202;-72
2022/02/19 03:03:36;;;;;;;9.10;2.37;;;9.40;1.00;;;;;;5073691;28;20202;-72
2022/02/19 03:06:05;;;;;;;6.03;3.03;;;9.40;1.00;;;;;;5074452;28;20202;-72
2022/02/19 03:08:33;;;;;;;7.53;1.90;;;9.30;1.00;;;;;;5074045;28;20249;-73
2022/02/19 03:11:00;;;;;;;9.30;2.23;;;9.30;1.00;;;;;;5074284;28;20256;-72
2022/02/19 03:13:29;;;;;;;6.03;1.67;;;9.40;1.00;;;;;;5074407;28;20252;-72
2022/02/19 03:15:56;;;;;;;5.03;1.87;;;9.30;1.00;;;;;;5074733;28;20202;-72
2022/02/19 03:18:23;;;;;;;4.27;1.87;;;9.30;1.00;;;;;;5073681;28;20238;-72
2022/02/19 03:20:50;;;;;;;5.90;2.00;;;9.40;1.00;;;;;;5073872;28;20252;-72
2022/02/19 03:23:17;;;;;;;5.47;2.70;;;9.40;1.00;;;;;;5073957;28;20214;-72
2022/02/19 03:25:44;;;;;;;6.83;2.10;;;9.30;1.00;;;;;;5073500;28;20206;-72
2022/02/19 03:28:11;;;;;;;7.70;1.37;;;9.30;1.00;;;;;;5073865;28;20614;-72
2022/02/19 03:30:39;;;;;;;6.93;3.10;;;9.40;1.00;;;;;;5073494;28;20583;-73
2022/02/19 03:33:06;;;;;;;6.67;2.00;;;9.40;1.00;;;;;;5073827;28;20203;-72
2022/02/19 03:35:33;;;;;;;5.90;1.53;;;9.30;1.00;;;;;;5073641;28;20202;-72
2022/02/19 03:38:00;;;;;;;15.43;2.60;;;9.30;1.00;;;;;;5073714;28;20234;-72
2022/02/19 03:40:27;;;;;;;2.37;1.30;;;9.30;1.00;;;;;;5073950;28;20265;-72
2022/02/19 03:42:54;;;;;;;10.10;2.33;;;9.30;1.00;;;;;;5073942;28;20206;-72
2022/02/19 03:45:21;;;;;;;10.50;1.67;;;9.30;1.00;;;;;;5073564;28;20205;-72
2022/02/19 03:47:49;;;;;;;5.27;1.77;;;9.30;1.00;;;;;;5072869;28;20206;-72
2022/02/19 03:50:18;;;;;;;7.17;3.63;;;9.30;1.00;;;;;;5073549;28;20255;-73
2022/02/19 03:52:45;;;;;;;8.67;1.73;;;9.30;1.00;;;;;;5073119;28;20206;-73
2022/02/19 03:55:12;;;;;;;7.30;2.00;;;9.30;1.00;;;;;;5073484;28;20623;-73
2022/02/19 03:57:39;;;;;;;3.03;1.20;;;9.30;1.00;;;;;;5072819;28;20234;-73
2022/02/19 04:00:11;;;;;;;4.67;1.60;;;9.30;1.00;;;;;;5073424;28;20630;-74
2022/02/19 04:02:38;;;;;;;13.30;3.30;;;9.20;1.00;;;;;;5072261;28;20286;-73
2022/02/19 04:05:09;;;;;;;8.10;1.73;;;9.20;1.00;;;;;;5072678;28;20664;-73
2022/02/19 04:07:36;;;;;;;7.43;1.80;;;9.20;1.00;;;;;;5072703;28;20210;-73
2022/02/19 04:10:04;;;;;;;5.10;1.53;;;9.20;1.00;;;;;;5073048;28;20206;-73
2022/02/19 04:12:31;;;;;;;7.97;2.50;;;9.20;1.00;;;;;;5072676;28;20259;-73
2022/02/19 04:14:58;;;;;;;6.23;1.90;;;9.20;1.00;;;;;;5073176;28;20254;-73
2022/02/19 04:17:24;;;;;;;4.97;1.60;;;9.20;1.00;;;;;;5073320;28;20230;-73
2022/02/19 04:19:53;;;;;;;8.47;2.17;;;9.30;1.00;;;;;;5072550;28;20209;-73
2022/02/19 04:22:22;;;;;;;5.90;1.70;;;9.30;1.00;;;;;;5072900;28;20209;-73
2022/02/19 04:24:49;;;;;;;11.70;3.27;;;9.30;1.00;;;;;;5072360;28;20457;-73
2022/02/19 04:27:17;;;;;;;5.40;2.57;;;9.30;1.00;;;;;;5073046;28;20344;-73
2022/02/19 04:29:44;;;;;;;7.03;2.00;;;9.20;1.00;;;;;;5072274;28;20202;-73
2022/02/19 04:32:11;;;;;;;7.93;2.70;;;9.20;1.00;;;;;;5072655;28;20206;-73
2022/02/19 04:34:39;;;;;;;10.73;2.10;;;9.20;1.00;;;;;;5072403;28;20202;-73
2022/02/19 04:37:06;;;;;;;5.77;2.77;;;9.20;1.00;;;;;;5072512;28;20774;-74
2022/02/19 04:39:35;;;;;;;5.53;1.77;;;9.20;1.00;;;;;;5072125;28;20213;-73
2022/02/19 04:42:02;;;;;;;9.30;2.07;;;9.20;1.00;;;;;;5072677;28;20205;-73
2022/02/19 04:44:29;;;;;;;4.90;1.27;;;9.20;1.00;;;;;;5072149;28;20747;-74
2022/02/19 04:46:56;;;;;;;7.13;2.37;;;9.20;1.00;;;;;;5072767;28;20210;-73
2022/02/19 04:49:23;;;;;;;6.27;2.27;;;9.10;1.00;;;;;;5072331;28;20206;-73
2022/02/19 04:51:50;;;;;;;8.10;2.07;;;9.10;1.00;;;;;;5071798;28;20260;-73
2022/02/19 04:54:17;;;;;;;7.73;1.70;;;9.20;1.00;;;;;;5072012;28;20315;-73
2022/02/19 04:56:46;;;;;;;8.67;1.50;;;9.30;1.00;;;;;;5071956;28;20203;-73
2022/02/19 04:59:13;;;;;;;6.50;2.50;;;9.30;1.00;;;;;;5071935;28;20202;-73
2022/02/19 05:01:40;;;;;;;9.40;2.63;;;9.30;1.00;;;;;;5071633;28;20202;-73
2022/02/19 05:04:07;;;;;;;15.13;5.97;;;9.20;1.00;;;;;;5072078;28;20202;-73
2022/02/19 05:06:34;;;;;;;8.97;2.47;;;9.20;1.00;;;;;;5071636;28;20265;-73
2022/02/19 05:09:01;;;;;;;9.70;2.40;;;9.30;1.00;;;;;;5072106;28;20267;-73
2022/02/19 05:11:28;;;;;;;10.10;2.70;;;9.20;1.00;;;;;;5072089;28;20202;-73
2022/02/19 05:13:56;;;;;;;10.60;2.27;;;9.20;1.00;;;;;;5071856;28;20206;-73
2022/02/19 05:16:23;;;;;;;10.37;2.80;;;9.20;1.00;;;;;;5071682;28;20202;-73
2022/02/19 05:18:50;;;;;;;5.00;1.90;;;9.20;1.00;;;;;;5071227;28;20242;-73
2022/02/19 05:21:17;;;;;;;7.27;2.60;;;9.20;1.00;;;;;;5071911;28;20202;-73
2022/02/19 05:23:44;;;;;;;7.70;1.77;;;9.10;1.00;;;;;;5071502;28;20203;-73
2022/02/19 05:26:11;;;;;;;10.83;2.97;;;9.10;1.00;;;;;;5071650;28;20210;-73
2022/02/19 05:28:41;;;;;;;9.33;2.60;;;9.20;1.00;;;;;;5071037;28;20285;-73
2022/02/19 05:31:11;;;;;;;10.30;4.27;;;9.20;1.00;;;;;;5071484;28;20202;-73
2022/02/19 05:33:39;;;;;;;4.80;2.37;;;9.20;1.00;;;;;;5070985;28;20213;-73
2022/02/19 05:36:06;;;;;;;9.23;3.43;;;9.20;1.00;;;;;;5071390;28;20202;-73
2022/02/19 05:38:33;;;;;;;6.87;2.60;;;9.20;1.00;;;;;;5070964;28;20283;-74
2022/02/19 05:41:00;;;;;;;6.33;2.07;;;9.10;1.00;;;;;;5071350;28;20730;-73
2022/02/19 05:43:27;;;;;;;8.37;2.40;;;9.10;1.00;;;;;;5071331;28;20723;-73
2022/02/19 05:45:54;;;;;;;5.33;1.50;;;9.10;1.00;;;;;;5071138;28;20209;-73
2022/02/19 05:48:22;;;;;;;7.07;2.27;;;9.20;1.00;;;;;;5071385;28;20564;-74
2022/02/19 05:50:50;;;;;;;8.67;2.40;;;9.20;1.00;;;;;;5070652;28;20214;-73
2022/02/19 05:53:17;;;;;;;6.13;2.87;;;9.20;1.00;;;;;;5070988;28;20576;-73
2022/02/19 05:55:44;;;;;;;7.27;2.17;;;9.20;1.00;;;;;;5071398;28;20206;-74
2022/02/19 05:58:11;;;;;;;7.97;2.47;;;9.20;1.00;;;;;;5069153;28;20279;-73
2022/02/19 06:00:38;;;;;;;6.17;2.83;;;9.20;1.00;;;;;;5070637;28;20677;-73
2022/02/19 06:03:05;;;;;;;11.47;2.27;;;9.20;1.00;;;;;;5070137;28;20677;-73
2022/02/19 06:05:34;;;;;;;10.27;2.80;;;9.20;1.00;;;;;;5070952;28;20202;-74
2022/02/19 06:08:01;;;;;;;8.67;2.70;;;9.20;1.00;;;;;;5070538;28;20636;-74
2022/02/19 06:10:28;;;;;;;5.97;2.97;;;9.10;1.00;;;;;;5070985;28;20726;-73
2022/02/19 06:12:55;;;;;;;4.73;1.67;;;9.10;1.00;;;;;;5070678;28;20255;-73
2022/02/19 06:15:22;;;;;;;5.07;2.30;;;9.10;1.00;;;;;;5070887;28;20263;-73
2022/02/19 06:17:49;;;;;;;7.00;2.37;;;9.10;1.00;;;;;;5070742;28;20251;-73
2022/02/19 06:20:16;;;;;;;12.30;3.20;;;9.10;1.00;;;;;;5070480;28;20670;-73
2022/02/19 06:22:44;;;;;;;8.40;3.83;;;9.10;1.00;;;;;;5070923;28;20206;-73
2022/02/19 06:25:11;;;;;;;8.03;2.77;;;9.10;1.00;;;;;;5070229;28;20259;-73
2022/02/19 06:27:39;;;;;;;16.03;4.60;;;9.10;1.00;;;;;;5069893;28;20669;-73
2022/02/19 06:30:08;;;;;;;7.73;2.77;;;9.10;1.00;;;;;;5070497;28;20198;-73
2022/02/19 06:32:34;;;;;;;7.63;2.17;;;9.10;1.00;;;;;;5070901;28;20260;-73
2022/02/19 06:35:01;;;;;;;11.23;3.07;;;9.00;1.00;;;;;;5070171;28;20252;-73
2022/02/19 06:37:28;;;;;;;6.43;2.00;;;9.00;1.00;;;;;;5070980;28;20287;-73
2022/02/19 06:39:57;;;;;;;7.03;2.30;;;9.00;1.00;;;;;;5070302;28;20202;-73
2022/02/19 06:42:24;;;;;;;7.43;2.67;;;9.00;1.00;;;;;;5070484;28;20280;-73
2022/02/19 06:44:51;;;;;;;6.27;1.90;;;9.00;1.00;;;;;;5070667;28;20206;-73
2022/02/19 06:47:18;;;;;;;10.00;3.23;;;9.00;1.00;;;;;;5070406;28;20210;-75
2022/02/19 06:49:45;;;;;;;4.47;2.33;;;8.90;1.00;;;;;;5070626;28;20202;-76
2022/02/19 06:52:12;;;;;;;6.97;2.73;;;8.90;1.00;;;;;;5070076;28;20623;-73
2022/02/19 06:54:39;;;;;;;11.00;2.63;;;8.90;1.00;;;;;;5070137;28;20210;-73
2022/02/19 06:57:13;;;;;;;10.20;2.17;;;8.90;1.00;;;;;;5070300;28;20209;-73
2022/02/19 06:59:40;;;;;;;11.40;2.43;;;8.90;1.00;;;;;;5070363;28;20697;-74
2022/02/19 07:02:07;;;;;;;12.20;2.93;;;8.90;1.00;;;;;;5070183;28;20210;-73
2022/02/19 07:04:34;;;;;;;6.53;1.87;;;8.90;1.00;;;;;;5070259;28;20206;-73
2022/02/19 07:07:01;;;;;;;4.37;1.90;;;8.90;1.00;;;;;;5070150;28;20202;-73
2022/02/19 07:09:28;;;;;;;10.27;3.73;;;9.00;1.00;;;;;;5070344;28;20268;-72
2022/02/19 07:11:56;;;;;;;11.53;2.10;;;9.00;1.00;;;;;;5070384;28;20210;-72
2022/02/19 07:14:24;;;;;;;7.83;3.17;;;9.00;1.00;;;;;;5070493;28;20275;-72
2022/02/19 07:16:52;;;;;;;4.10;2.43;;;9.00;1.00;;;;;;5070096;28;20304;-72
2022/02/19 07:19:20;;;;;;;8.87;1.70;;;9.10;1.00;;;;;;5069880;28;20328;-72
2022/02/19 07:21:47;;;;;;;10.37;2.57;;;9.20;1.00;;;;;;5070235;28;20210;-72
2022/02/19 07:24:13;;;;;;;9.00;2.83;;;9.20;1.00;;;;;;5069990;28;20206;-72
2022/02/19 07:26:41;;;;;;;8.67;2.77;;;9.20;1.00;;;;;;5070274;28;20206;-73
2022/02/19 07:29:07;;;;;;;10.17;2.00;;;9.20;1.00;;;;;;5069531;28;20616;-72
2022/02/19 07:31:37;;;;;;;14.47;3.00;;;9.20;1.00;;;;;;5070056;28;20206;-73
2022/02/19 07:34:04;;;;;;;11.77;2.63;;;9.10;1.00;;;;;;5069667;28;20568;-72
2022/02/19 07:36:31;;;;;;;6.73;2.17;;;9.20;1.00;;;;;;5070036;28;20556;-72
2022/02/19 07:38:58;;;;;;;8.63;2.73;;;9.20;1.00;;;;;;5072247;28;20287;-72
2022/02/19 07:41:25;;;;;;;11.07;1.90;;;9.30;1.00;;;;;;5073532;28;20625;-72
2022/02/19 07:43:52;;;;;;;7.53;2.43;;;9.40;1.00;;;;;;5073523;28;20202;-72
2022/02/19 07:46:19;;;;;;;11.60;2.90;;;9.30;1.00;;;;;;5073483;28;20202;-72
2022/02/19 07:48:48;;;;;;;15.23;2.80;;;9.30;1.00;;;;;;5073416;28;20228;-72
2022/02/19 07:59:24;;;;;;;7.33;2.60;;;9.30;1.00;;;;;;5073159;28;20259;-72
2022/02/19 08:01:51;;;;;;;18.80;4.67;;;9.30;1.00;;;;;;5073161;28;20210;-73
2022/02/19 08:04:20;;;;;;;6.47;2.07;;;9.50;1.00;;;;;;5073145;28;20205;-73
2022/02/19 08:06:47;;;;;;;6.13;2.10;;;9.60;1.00;;;;;;5073041;28;20202;-72
2022/02/19 08:09:14;;;;;;;9.40;2.93;;;9.70;1.00;;;;;;5072763;28;20592;-72
2022/02/19 08:11:41;;;;;;;10.57;3.37;;;9.70;1.00;;;;;;5072927;28;20256;-74
2022/02/19 08:14:08;;;;;;;12.50;2.70;;;9.80;1.00;;;;;;5072474;28;20684;-73
2022/02/19 08:16:35;;;;;;;11.07;4.20;;;9.70;1.00;;;;;;5073008;28;20202;-72
2022/02/19 08:19:02;;;;;;;16.50;2.93;;;9.70;1.00;;;;;;5072507;28;20279;-73
2022/02/19 08:21:30;;;;;;;9.20;2.70;;;9.70;1.00;;;;;;5073095;28;20206;-72
2022/02/19 08:23:57;;;;;;;14.17;3.27;;;9.90;1.00;;;;;;5072681;28;20547;-72
2022/02/19 08:26:25;;;;;;;15.03;3.63;;;9.90;1.00;;;;;;5072714;28;20670;-72
2022/02/19 08:28:53;;;;;;;19.17;4.67;;;9.90;1.00;;;;;;5072371;28;20210;-72
2022/02/19 08:31:20;;;;;;;6.90;2.40;;;9.80;1.00;;;;;;5072635;28;20207;-72
2022/02/19 08:33:47;;;;;;;7.20;2.27;;;10.00;1.00;;;;;;5072764;28;20206;-72
2022/02/19 08:36:15;;;;;;;12.47;3.90;;;10.00;1.00;;;;;;5071994;28;20252;-72
2022/02/19 08:38:43;;;;;;;17.83;3.70;;;10.10;1.00;;;;;;5072388;28;20230;-72
2022/02/19 08:41:10;;;;;;;10.97;3.60;;;10.10;1.00;;;;;;5071787;28;20263;-73
2022/02/19 08:43:37;;;;;;;11.90;3.03;;;10.10;1.00;;;;;;5072341;28;20198;-73
2022/02/19 08:46:04;;;;;;;6.07;2.07;;;10.20;1.00;;;;;;5072157;28;20256;-72
2022/02/19 08:48:31;;;;;;;13.27;2.77;;;10.50;1.00;;;;;;5072768;28;20210;-72
2022/02/19 08:51:00;;;;;;;9.50;2.30;;;10.50;1.00;;;;;;5071368;28;20214;-72
2022/02/19 08:53:27;;;;;;;11.50;3.23;;;10.50;1.00;;;;;;5072020;28;20571;-72
2022/02/19 08:55:57;;;;;;;10.77;2.30;;;10.50;1.00;;;;;;5072153;28;20218;-72
2022/02/19 08:58:24;;;;;;;12.27;2.63;;;10.60;1.00;;;;;;5072209;28;20234;-72
2022/02/19 09:00:51;;;;;;;10.63;3.50;;;10.70;1.00;;;;;;5072058;28;20202;-73
2022/02/19 09:03:18;;;;;;;13.63;3.70;;;10.70;1.00;;;;;;5071733;28;20202;-72
2022/02/19 09:05:46;;;;;;;17.80;2.93;;;10.80;1.00;;;;;;5071855;28;20209;-72
2022/02/19 09:08:14;;;;;;;9.07;2.93;;;11.10;1.00;;;;;;5071446;28;20252;-72
2022/02/19 09:10:41;;;;;;;14.67;3.57;;;11.20;1.00;;;;;;5072083;28;20300;-73
2022/02/19 09:13:10;;;;;;;10.60;2.70;;;11.10;1.00;;;;;;5071407;28;20206;-72
2022/02/19 09:15:38;;;;;;;11.10;2.53;;;10.90;1.00;;;;;;5071854;28;20306;-72
2022/02/19 09:18:07;;;;;;;11.00;2.60;;;11.30;1.00;;;;;;5071338;28;20197;-72
2022/02/19 09:20:34;;;;;;;7.00;2.10;;;11.40;1.00;;;;;;5071947;28;20300;-72
2022/02/19 09:23:01;;;;;;;16.13;3.03;;;11.30;1.00;;;;;;5071695;28;20210;-72
2022/02/19 09:25:28;;;;;;;13.50;3.37;;;11.00;1.00;;;;;;5071779;28;20201;-73
2022/02/19 09:27:55;;;;;;;8.90;2.50;;;10.90;1.00;;;;;;5071036;28;20214;-72
2022/02/19 09:30:24;;;;;;;14.37;2.90;;;11.10;1.00;;;;;;5071643;28;20223;-72
2022/02/19 09:32:51;;;;;;;10.40;2.77;;;11.60;1.00;;;;;;5071419;28;20334;-72
2022/02/19 09:35:18;;;;;;;9.90;3.10;;;12.10;1.00;;;;;;5070759;28;20202;-73
2022/02/19 09:37:45;;;;;;;8.67;2.40;;;12.50;1.00;;;;;;5071269;28;20661;-72
2022/02/19 09:40:13;;;;;;;11.48;2.05;;;13.30;1.00;;;;;;5070712;28;20720;-73
2022/02/19 09:42:40;;;;;;;9.57;2.33;;;14.00;1.00;;;;;;5071172;28;20209;-73
2022/02/19 09:45:08;;;;;;;11.90;2.58;;;14.20;1.00;;;;;;5070738;28;20202;-73
2022/02/19 09:47:38;;;;;;;4.72;2.03;;;13.80;1.00;;;;;;5071007;28;20553;-73
2022/02/19 09:50:07;;;;;;;9.05;3.05;;;13.20;1.00;;;;;;5070354;28;20198;-72
2022/02/19 09:52:34;;;;;;;10.13;2.70;;;12.60;1.00;;;;;;5071041;28;20202;-72
2022/02/19 09:55:01;;;;;;;9.45;2.75;;;13.00;1.00;;;;;;5070865;28;20202;-72
2022/02/19 09:57:28;;;;;;;13.23;2.90;;;13.90;1.00;;;;;;5071091;28;20210;-72
2022/02/19 09:59:55;;;;;;;13.80;3.47;;;14.20;1.00;;;;;;5070467;28;20234;-72
2022/02/19 10:02:31;;;;;;;8.82;2.88;;;13.40;1.00;;;;;;5069780;28;20209;-73
2022/02/19 10:05:15;;;;;;;7.38;2.13;;;14.00;1.00;;;;;;5070235;28;20696;-73
2022/02/19 10:07:43;;;;;;;7.05;2.25;;;14.20;1.00;;;;;;5070705;28;20617;-73
2022/02/19 10:10:24;;;;;;;17.15;4.00;;;15.20;1.00;;;;;;5070511;28;20684;-72
2022/02/19 10:12:51;;;;;;;12.02;2.70;;;14.60;1.00;;;;;;5070754;28;20298;-73
2022/02/19 10:15:18;;;;;;;11.48;3.72;;;14.40;1.00;;;;;;5070844;28;20205;-73
2022/02/19 10:17:45;;;;;;;7.38;2.50;;;13.70;1.00;;;;;;5070686;28;20253;-72
2022/02/19 10:20:17;;;;;;;12.90;2.78;;;13.40;1.00;;;;;;5070549;28;20234;-73
2022/02/19 10:22:44;;;;;;;9.43;3.50;;;13.40;1.00;;;;;;5070629;28;20202;-72
2022/02/19 10:25:13;;;;;;;8.35;3.13;;;13.30;1.00;;;;;;5070242;28;20289;-73
2022/02/19 10:27:47;;;;;;;11.95;2.85;;;13.40;1.00;;;;;;5070610;28;20749;-73
2022/02/19 10:30:16;;;;;;;8.23;2.50;;;13.40;1.00;;;;;;5070184;28;20249;-73
2022/02/19 10:32:49;;;;;;;6.63;2.17;;;13.30;1.00;;;;;;5070370;28;20297;-72
2022/02/19 10:35:18;;;;;;;8.45;2.50;;;12.70;1.00;;;;;;5070232;28;20202;-73
2022/02/19 10:37:46;;;;;;;6.55;2.42;;;12.60;1.00;;;;;;5070549;28;20654;-73
2022/02/19 10:40:34;;;;;;;10.18;2.70;;;13.00;1.00;;;;;;5070080;28;20395;-73
2022/02/19 10:43:06;;;;;;;11.50;3.53;;;12.90;1.00;;;;;;5070256;28;20297;-72
2022/02/19 10:45:33;;;;;;;12.35;3.88;;;13.00;1.00;;;;;;5070756;28;20565;-73
2022/02/19 10:48:17;;;;;;;13.07;3.83;;;13.00;1.00;;;;;;5069932;28;20206;-72
2022/02/19 10:50:47;;;;;;;4.65;1.70;;;13.20;1.00;;;;;;5070374;28;20685;-73
2022/02/19 10:53:22;;;;;;;10.80;3.50;;;13.30;1.00;;;;;;5069851;28;20214;-73
2022/02/19 10:55:49;;;;;;;17.20;2.70;;;12.80;1.00;;;;;;5070234;28;20672;-73
2022/02/19 10:58:16;;;;;;;11.90;2.55;;;12.70;1.00;;;;;;5069915;28;20202;-72
2022/02/19 11:00:44;;;;;;;6.13;1.88;;;13.00;1.00;;;;;;5069924;28;20241;-73
2022/02/19 11:03:12;;;;;;;7.57;2.03;;;13.00;1.00;;;;;;5070149;28;20205;-73
2022/02/19 11:05:40;;;;;;;4.57;1.63;;;12.70;1.00;;;;;;5070535;28;20230;-73
2022/02/19 11:08:09;;;;;;;10.60;2.88;;;12.60;1.00;;;;;;5069636;28;20206;-73
2022/02/19 11:10:37;;;;;;;10.45;3.33;;;12.80;1.00;;;;;;5070146;28;20281;-73
2022/02/19 11:13:05;;;;;;;8.38;1.55;;;13.00;1.00;;;;;;5071592;28;20289;-74
2022/02/19 11:15:32;;;;;;;10.00;2.88;;;13.00;1.00;;;;;;5074224;28;20202;-73
2022/02/19 11:18:00;;;;;;;7.95;1.60;;;13.30;1.00;;;;;;5073989;28;20263;-73
2022/02/19 11:20:27;;;;;;;7.50;2.08;;;13.30;1.00;;;;;;5074112;28;20264;-72
2022/02/19 11:22:55;;;;;;;9.35;2.83;;;13.40;1.00;;;;;;5073799;28;20198;-73
2022/02/19 11:25:25;;;;;;;4.72;1.50;;;13.70;1.00;;;;;;5073841;28;20213;-74
2022/02/19 11:28:00;;;;;;;4.45;1.98;;;13.40;1.00;;;;;;5073523;28;20206;-73
2022/02/19 11:30:31;;;;;;;4.00;1.38;;;13.60;1.00;;;;;;5073348;28;20735;-73
2022/02/19 11:32:59;;;;;;;3.05;1.50;;;13.40;1.00;;;;;;5073382;28;20206;-73
2022/02/19 11:35:39;;;;;;;5.47;2.05;;;13.70;1.00;;;;;;5073907;28;20264;-73
2022/02/19 11:38:21;;;;;;;4.30;1.45;;;13.60;1.00;;;;;;5073966;28;20201;-73
2022/02/19 11:40:53;;;;;;;3.00;1.20;;;13.40;1.00;;;;;;5073522;28;20655;-73
2022/02/19 11:43:38;;;;;;;7.90;2.42;;;13.30;1.00;;;;;;5073785;28;20249;-75
2022/02/19 11:46:10;;;;;;;5.03;1.38;;;13.20;1.00;;;;;;5073228;28;20615;-73
2022/02/19 11:48:37;;;;;;;4.53;1.67;;;13.50;1.00;;;;;;5073728;28;20252;-73
2022/02/19 11:51:12;;;;;;;5.88;1.52;;;12.50;1.00;;;;;;5073497;28;20206;-72
2022/02/19 11:53:40;;;;;;;4.15;1.17;;;12.80;1.00;;;;;;5073630;28;20267;-73
2022/02/19 11:56:14;;;;;;;5.63;2.67;;;12.70;1.00;;;;;;5073576;28;20222;-74
2022/02/19 11:58:52;;;;;;;3.47;1.80;;;13.20;1.00;;;;;;5073082;28;20197;-72
2022/02/19 12:01:19;;;;;;;15.70;3.08;;;13.20;1.00;;;;;;5073040;28;20205;-73
2022/02/19 12:03:46;;;;;;;7.57;2.50;;;13.20;1.00;;;;;;5073237;28;20251;-73
2022/02/19 12:06:18;;;;;;;8.38;2.00;;;12.90;1.00;;;;;;5072985;28;20210;-73
2022/02/19 12:09:10;;;;;;;4.68;1.63;;;13.00;1.00;;;;;;5073169;28;20208;-73
2022/02/19 12:12:03;;;;;;;7.00;1.63;;;13.00;1.00;;;;;;5073247;28;20209;-73
2022/02/19 12:14:47;;;;;;;5.88;1.90;;;13.30;1.00;;;;;;5072878;28;20202;-72
2022/02/19 12:17:16;;;;;;;5.57;1.60;;;13.10;1.00;;;;;;5072404;28;20595;-73
2022/02/19 12:19:58;;;;;;;6.82;1.90;;;13.50;1.00;;;;;;5072831;28;20229;-73
2022/02/19 12:22:30;;;;;;;5.50;2.28;;;13.40;1.00;;;;;;5072709;28;20621;-73
2022/02/19 12:24:58;;;;;;;3.80;2.28;;;12.80;1.00;;;;;;5071507;28;20202;-72
2022/02/19 12:27:27;;;;;;;5.75;1.73;;;13.00;1.00;;;;;;5072618;28;20198;-72
2022/02/19 12:30:23;;;;;;;8.70;2.17;;;13.10;1.00;;;;;;5072412;28;20688;-73
2022/02/19 12:32:52;;;;;;;7.68;1.80;;;13.30;1.00;;;;;;5072899;28;20259;-73
2022/02/19 12:35:20;;;;;;;2.92;1.33;;;13.10;1.00;;;;;;5072559;28;20677;-73
2022/02/19 12:37:47;;;;;;;2.88;0.90;;;12.90;1.00;;;;;;5072667;28;20202;-73
2022/02/19 12:40:19;;;;;;;3.55;1.55;;;12.80;1.00;;;;;;5071893;28;20942;-73
2022/02/19 12:42:49;;;;;;;3.63;1.20;;;12.90;1.00;;;;;;5072346;28;20202;-73
2022/02/19 12:45:17;;;;;;;5.90;1.52;;;12.50;1.00;;;;;;5072433;28;20206;-73
2022/02/19 12:47:45;;;;;;;5.45;1.88;;;12.70;1.00;;;;;;5072533;28;20566;-73
2022/02/19 12:50:15;;;;;;;5.82;1.20;;;12.90;1.00;;;;;;5072026;28;20202;-73
2022/02/19 12:52:42;;;;;;;2.83;1.33;;;13.10;1.00;;;;;;5072063;28;20210;-73
2022/02/19 12:55:16;;;;;;;5.28;1.25;;;12.90;1.00;;;;;;5072154;28;20249;-73
2022/02/19 12:57:45;;;;;;;3.53;1.70;;;12.90;1.00;;;;;;5071857;28;20213;-73
2022/02/19 13:00:15;;;;;;;3.80;1.13;;;13.30;1.00;;;;;;5071649;28;20325;-73
2022/02/19 13:02:45;;;;;;;3.28;1.35;;;13.20;1.00;;;;;;5072124;28;20234;-72
2022/02/19 13:05:13;;;;;;;7.35;1.45;;;13.40;1.00;;;;;;5071629;28;20203;-72
2022/02/19 13:07:41;;;;;;;6.55;2.03;;;13.40;1.00;;;;;;5071856;28;20206;-73
2022/02/19 13:10:10;;;;;;;6.10;1.33;;;13.10;1.00;;;;;;5071775;28;20236;-75
2022/02/19 13:12:38;;;;;;;6.00;1.70;;;13.40;1.00;;;;;;5071907;28;20198;-73
2022/02/19 13:15:09;;;;;;;5.43;1.65;;;13.30;1.00;;;;;;5071731;28;20225;-73